Home > Products > Valid Products > TAF

000
FTUS45 KBOI 241359 AAA
TAFMYL
TAF AMD
KMYL 241359Z 2414/2512 16007KT 1 1/2SM -SN BR BKN005 OVC010
     FM241700 17007KT P6SM -SHRA BKN025 OVC040
     FM242100 18007KT 5SM -SHRA BR VCTS BKN030CB BKN050
     FM250200 VRB05KT 3SM -SN BR BKN015 OVC030
     FM250900 VRB03KT 2SM -SHSN BR OVC015=



000
FTUS45 KBOI 241120
TAFTWF
TAF
KTWF 241120Z 2412/2512 18012KT P6SM OVC080
     FM241300 21010KT P6SM VCSH SCT040 OVC060
     FM241500 23010KT P6SM -RA BKN040 OVC060
     FM242000 25015KT P6SM -SHRA SCT050 OVC100
     FM250500 19008KT P6SM -SHRA BKN035 OVC050=



000
FTUS45 KBOI 241120
TAFBNO
TAF
KBNO 241120Z 2412/2512 19005KT P6SM -RA SCT025 OVC035
     FM241500 22008KT P6SM VCSH BKN050
     FM242000 22015G25KT P6SM -SHRA VCTS SCT040CB BKN080
     FM250200 24010KT P6SM BKN035
     FM250900 VRB03KT P6SM BKN020=



000
FTUS45 KBOI 241120
TAFMYL
TAF
KMYL 241120Z 2412/2512 16007KT 5SM -RASN BR OVC010
     FM241400 17007KT 3SM -RASN BR SCT005 OVC010
     FM242100 18007KT 5SM -SHRA BR VCTS BKN030CB BKN050
     FM250200 VRB05KT 3SM -SN BR BKN015 OVC030
     FM250900 VRB03KT 2SM -SHSN BR OVC015=



000
FTUS45 KBOI 241120
TAFJER
TAF
KJER 241120Z 2412/2512 13008KT P6SM OVC080
     FM241300 06006KT P6SM VCSH SCT040 OVC060
     FM241500 22010KT P6SM -RA BKN040 OVC060
     FM242000 27015KT P6SM -SHRA SCT050 OVC100
     FM250300 07008KT P6SM -SHRA BKN035 OVC050=



000
FTUS45 KBOI 241120
TAFBKE
TAF
KBKE 241120Z 2412/2512 12008KT P6SM -RA SCT025 OVC050
     FM241900 21010KT P6SM -SHRA VCTS SCT040CB BKN080
     FM250200 33010KT P6SM VCSH BKN050 BKN080
     FM250600 VRB03KT P6SM VCSH BKN040 OVC060=



000
FTUS45 KBOI 241120
TAFBOI
TAF
KBOI 241120Z 2412/2512 12010KT P6SM -RA SCT025 OVC035
     FM241900 13010KT P6SM -RA BKN050 OVC100
     FM242300 32010KT P6SM -RA OVC040
     FM250300 13006KT P6SM VCSH BKN050 OVC100
     FM250900 15008KT P6SM -RA BKN035 OVC050=



000
FTUS45 KBOI 241001 AAA
TAFBKE
TAF AMD
KBKE 241001Z 2410/2506 09008KT P6SM -RA SCT025 OVC050
     FM242000 22012KT 6SM -SHRA VCTS SCT040CB BKN080
     FM250200 33010KT P6SM VCSH SCT050 BKN100=



000
FTUS45 KBOI 240957 AAA
TAFMYL
TAF AMD
KMYL 240957Z 2410/2506 16007KT 5SM -RASN BR BKN015 OVC025
     FM241300 17005KT 3SM -SN BR OVC005
     FM242100 18007KT 5SM -SHRASN BR VCTS BKN030 BKN050CB
     FM250200 VRB05KT P6SM -SHRA SCT040 BKN080=



000
FTUS45 KBOI 240936 AAB
TAFBOI
TAF AMD
KBOI 240936Z 2410/2506 12010KT P6SM VCSH SCT040 BKN080
     FM241200 12015KT P6SM -RA SCT025 OVC040
     FM242000 13010KT P6SM -SHRA VCTS SCT050CB BKN080
     FM250000 VRB05KT P6SM -SHRA OVC040=



000
FTUS45 KBOI 240844 AAA
TAFBNO
TAF AMD
KBNO 240844Z 2409/2506 19005KT P6SM -SHRA OVC040
     FM241800 22015G25KT P6SM -SHRA VCTS SCT040CB BKN080
     FM250000 24015G25KT P6SM VCSH SCT050=



000
FTUS45 KBOI 240520
TAFMYL
TAF
KMYL 240520Z 2406/2506 VRB03KT P6SM OVC100
     FM240900 16005KT 2SM -SN BR SCT007 OVC015
     FM241300 17005KT 1SM -SN BR OVC005
     FM242100 18007KT 5SM -SHRASN BR VCTS BKN030 BKN050CB
     FM250200 VRB05KT P6SM -SHRA SCT040 BKN080=



000
FTUS45 KBOI 240520
TAFBNO
TAF
KBNO 240520Z 2406/2506 VRB03KT P6SM SCT050 BKN100
     FM240900 19005KT 6SM -SHRA OVC050
     FM241800 22015G25KT P6SM -SHRA VCTS SCT040CB BKN080
     FM250000 24015G25KT P6SM VCSH SCT050=



000
FTUS45 KBOI 240520
TAFTWF
TAF
KTWF 240520Z 2406/2506 17010KT P6SM SCT120
     FM241500 21010KT P6SM VCSH SCT060 BKN100
     FM242100 25015KT P6SM -SHRA VCTS SCT050CB BKN100
     FM250200 26007KT P6SM VCSH SCT040 BKN080=



000
FTUS45 KBOI 240520
TAFBOI
TAF
KBOI 240520Z 2406/2506 VRB05KT P6SM BKN070 OVC100
     FM241000 12015KT P6SM VCSH SCT040 BKN080
     FM241400 12015KT P6SM -RA SCT025 OVC040
     FM242000 13010KT P6SM -SHRA VCTS SCT050CB BKN080
     FM250000 VRB05KT P6SM -SHRA OVC040=



000
FTUS45 KBOI 240520
TAFJER
TAF
KJER 240520Z 2406/2506 09008KT P6SM SCT120
     FM241200 06008KT P6SM BKN120
     FM241500 21010KT P6SM VCSH SCT050 BKN100
     FM242100 26010G20KT P6SM -SHRA VCTS SCT050CB BKN100
     FM250200 27008KT P6SM VCSH SCT040 BKN080=



000
FTUS45 KBOI 240520
TAFBKE
TAF
KBKE 240520Z 2406/2506 11007KT P6SM OVC090
     FM241000 09008KT 5SM -RA BR SCT015 OVC025
     FM242000 22012KT 6SM -SHRA VCTS SCT040CB BKN080
     FM250200 33010KT P6SM VCSH SCT050 BKN100=



000
FTUS45 KBOI 240200 AAA
TAFMYL
TAF AMD
KMYL 240200Z 2402/2424 16010KT P6SM VCSH BKN050
     FM240900 16005KT 2SM -SN BR SCT007 OVC015
     FM241300 17005KT 1SM -SN BR OVC005
     FM242100 18007KT 5SM -SHRASN BR VCTS SCT030CB BKN050=



000
FTUS45 KBOI 240159 AAA
TAFBNO
TAF AMD
KBNO 240159Z 2402/2424 23010KT P6SM OVC100
     FM240300 21007KT P6SM VCSH SCT025 OVC040
     FM240600 21010KT P6SM -RA SCT015 OVC025
     FM241800 22015G25KT P6SM -SHRA VCTS SCT040CB BKN080=



000
FTUS45 KBOI 240158 AAA
TAFBKE
TAF AMD
KBKE 240158Z 2402/2424 VRB06KT P6SM OVC100
     FM240600 29007KT P6SM -RA SCT030 OVC050
     FM241000 09008KT 5SM -RA BR SCT015 OVC025
     FM242000 18012KT 6SM -SHRA VCTS SCT040CB BKN080=



000
FTUS45 KBOI 240138 AAB
TAFTWF
TAF AMD
KTWF 240138Z 2402/2424 23010KT P6SM BKN060 OVC090
     FM240300 20010KT P6SM SCT070 BKN200
     FM241500 21010KT P6SM VCSH SCT060 BKN100
     FM242100 25015KT P6SM -SHRA VCTS SCT050CB BKN100=



000
FTUS45 KBOI 232358 AAA
TAFTWF
TAF AMD
KTWF 232358Z 2400/2424 26013G20KT P6SM OVC090
     FM240300 20010KT P6SM SCT070 BKN200
     FM241500 21010KT P6SM VCSH SCT060 BKN100
     FM242100 25015KT P6SM -SHRA VCTS SCT050CB BKN100=



000
FTUS45 KBOI 232320
TAFJER
TAF
KJER 232320Z 2400/2424 21012KT P6SM FEW060 BKN090
     FM240300 21007KT P6SM SCT080 BKN200
     FM241200 06008KT P6SM BKN120
     FM241500 21010KT P6SM VCSH SCT050 BKN100
     FM242100 26010G20KT P6SM -SHRA VCTS SCT050CB BKN100=



000
FTUS45 KBOI 232320
TAFBKE
TAF
KBKE 232320Z 2400/2424 22012KT P6SM FEW070 SCT120
     FM240600 29007KT P6SM -RA SCT030 OVC050
     FM241000 09008KT 5SM -RA BR SCT015 OVC025
     FM242000 18012KT 6SM -SHRA VCTS SCT040CB BKN080=



000
FTUS45 KBOI 232320
TAFTWF
TAF
KTWF 232320Z 2400/2424 22010KT P6SM BKN070
     FM240300 20010KT P6SM SCT070 BKN200
     FM241500 21010KT P6SM VCSH SCT060 BKN100
     FM242100 25015KT P6SM -SHRA VCTS SCT050CB BKN100=



000
FTUS45 KBOI 232320
TAFMYL
TAF
KMYL 232320Z 2400/2424 15010KT P6SM VCSH FEW015 BKN030
     FM240900 16005KT 2SM -SN BR SCT007 OVC015
     FM241300 17005KT 1SM -SN BR OVC005
     FM242100 18007KT 5SM -SHRASN BR VCTS SCT030CB BKN050=



000
FTUS45 KBOI 232320
TAFBOI
TAF
KBOI 232320Z 2400/2424 VRB03KT P6SM BKN100
     FM241000 12015KT P6SM VCSH SCT040 BKN080
     FM241400 12015KT P6SM -RA SCT025 OVC040
     FM242000 13010KT P6SM -SHRA VCTS SCT050CB BKN080=



000
FTUS45 KBOI 232320
TAFBNO
TAF
KBNO 232320Z 2400/2424 21015G25KT P6SM OVC080
     FM240300 21007KT P6SM VCSH SCT025 OVC040
     FM240600 21010KT P6SM -RA SCT015 OVC025
     FM241800 22015G25KT P6SM -SHRA VCTS SCT040CB BKN080=



000
FTUS45 KBOI 232032 AAA
TAFMYL
TAF AMD
KMYL 232032Z 2321/2418 19010KT P6SM VCSH SCT025 BKN035 OVC090
     FM240100 VRB06KT P6SM VCSH SCT025 OVC050
     FM241100 18006KT 2SM -SN BR SCT007 OVC015
     FM241500 18005KT 1SM -SN BR OVC005=



000
FTUS45 KBOI 231724
TAFBNO
TAF
KBNO 231724Z 2318/2418 24012G22KT P6SM SCT040 BKN060
     FM240300 22006KT P6SM VCSH SCT025 OVC040
     FM240600 22006KT P6SM -RA SCT015 OVC025=



000
FTUS45 KBOI 231724
TAFBKE
TAF
KBKE 231724Z 2318/2418 16008KT P6SM VCSH BKN090
     FM240600 14006KT P6SM -RA SCT030 OVC050
     FM241500 12012KT 6SM -RA BR SCT015 OVC025=



000
FTUS45 KBOI 231724
TAFMYL
TAF
KMYL 231724Z 2318/2418 18010KT P6SM -SN SCT008 BKN025 OVC035
      TEMPO 2318/2319 3SM -SHSN BR BKN008
     FM231900 19010KT 5SM -SHSN BR SCT015 OVC025
     FM240100 VRB06KT P6SM VCSH SCT025 OVC050
     FM241100 18006KT 2SM -SN BR SCT007 OVC015
     FM241500 18005KT 1SM -SN BR OVC005=



000
FTUS45 KBOI 231724
TAFBOI
TAF
KBOI 231724Z 2318/2418 VRB06KT P6SM SCT060 OVC080
     FM240400 13009KT P6SM OVC090
     FM241100 12014KT P6SM VCSH SCT030 OVC050
     FM241400 12014KT P6SM -RA SCT025 OVC040=



000
FTUS45 KBOI 231724
TAFJER
TAF
KJER 231724Z 2318/2418 25015KT P6SM SCT060
     FM240300 21010KT P6SM SCT060 BKN200
     FM240600 08007KT P6SM SCT060 BKN100
     FM241500 24008KT P6SM VCSH OVC050=



000
FTUS45 KBOI 231724
TAFTWF
TAF
KTWF 231724Z 2318/2418 27015KT P6SM SCT060
     FM240300 20010KT P6SM SCT060 BKN200=



000
FTUS45 KBOI 231522 AAA
TAFTWF
TAF AMD
KTWF 231522Z 2315/2412 22012KT P6SM SCT100
     FM231800 26015KT P6SM SCT060
     FM240200 22010KT P6SM SCT060 BKN200
     FM240800 20010KT P6SM OVC060=



000
FTUS45 KBOI 231520 AAA
TAFMYL
TAF AMD
KMYL 231520Z 2315/2412 VRB03KT P6SM SCT020 OVC050
      TEMPO 2315/2317 5SM -SN BR BKN020
     FM231700 19010KT 3SM -SN BR OVC015
     FM232200 19010KT 5SM -SHSN BR SCT015 OVC025
     FM240200 VRB03KT P6SM VCSH SCT030 BKN050
     FM241000 20006KT 2SM -SN BR OVC015=



000
FTUS45 KBOI 231518 AAA
TAFBKE
TAF AMD
KBKE 231518Z 2315/2412 VRB05KT P6SM VCSH SCT050 OVC090
      TEMPO 2315/2317 6SM -SN BR SCT025 BKN040
     FM232000 12007KT P6SM VCSH BKN100
     FM240200 07008KT P6SM -RA OVC050
     FM240900 VRB05KT P6SM -RA OVC035=



000
FTUS45 KBOI 231120
TAFMYL
TAF
KMYL 231120Z 2312/2412 00000KT P6SM SCT002 BKN050
     FM231500 17010KT 3SM -SN BR OVC015
     FM232200 19010KT 5SM -SHSN BR SCT015 OVC025
     FM240200 VRB03KT P6SM VCSH SCT030 BKN050
     FM241000 20006KT 2SM -SN BR OVC015=



000
FTUS45 KBOI 231120
TAFJER
TAF
KJER 231120Z 2312/2412 23012KT P6SM SCT100
     FM231800 26015KT P6SM SCT060
     FM240300 22008KT P6SM SCT060 BKN200
     FM240800 08008KT P6SM OVC060=



000
FTUS45 KBOI 231120
TAFBKE
TAF
KBKE 231120Z 2312/2412 VRB05KT P6SM VCSH SCT050 BKN100
     FM231500 10060KT P6SM -RA BKN050 OVC080
     FM232000 12007KT P6SM VCSH BKN100
     FM240200 07008KT P6SM -RA OVC050
     FM240900 VRB05KT P6SM -RA OVC035=



000
FTUS45 KBOI 231120
TAFBNO
TAF
KBNO 231120Z 2312/2412 24006KT P6SM OVC080
     FM231800 23012G22KT P6SM OVC100
     FM240200 23010KT P6SM -SHRA BKN040
     FM240900 VRB04KT P6SM -RA OVC025=



000
FTUS45 KBOI 231120
TAFBOI
TAF
KBOI 231120Z 2312/2412 VRB05KT P6SM SCT080
     FM231400 15006KT P6SM BKN080
     FM240100 13008KT P6SM BKN150
     FM240900 14010KT P6SM OVC100=



000
FTUS45 KBOI 231120
TAFTWF
TAF
KTWF 231120Z 2312/2412 22012KT P6SM SCT100
     FM231400 24015G25KT P6SM BKN060
     FM231800 26015KT P6SM SCT060
     FM240200 22010KT P6SM SCT060 BKN200
     FM240800 20010KT P6SM OVC060=



000
FTUS45 KBOI 230858 AAB
TAFJER
TAF AMD
KJER 230858Z 2309/2406 24018KT P6SM SCT080
     FM231200 23012KT P6SM SCT120
     FM231800 26020G30KT P6SM SCT100
     FM240300 25010KT P6SM BKN080=



000
FTUS45 KBOI 230857 AAA
TAFTWF
TAF AMD
KTWF 230857Z 2309/2406 22020KT P6SM BKN090
     FM231800 26020G30KT P6SM SCT120
     FM240200 26012KT P6SM BKN100=



000
FTUS45 KBOI 230806 AAA
TAFMYL
TAF AMD
KMYL 230806Z 2308/2406 00000KT P6SM VCFG SCT002 SCT120
      TEMPO 2308/2312 1SM BR BKN002
     FM231500 17010KT 2SM -SN BR OVC015
     FM232100 19010KT 5SM -SHSN BR SCT015 OVC025
     FM240300 VRB03KT P6SM VCSH SCT030 BKN050=



000
FTUS45 KBOI 230656 AAA
TAFJER
TAF AMD
KJER 230656Z 2307/2406 24018G25KT P6SM SCT080
     FM231200 23012KT P6SM SCT120
     FM231800 26020G30KT P6SM SCT100
     FM240300 25010KT P6SM BKN080=



000
FTUS45 KBOI 230655 AAA
TAFBOI
TAF AMD
KBOI 230655Z 2307/2406 29006KT P6SM FEW080
     FM231600 32015KT P6SM BKN120
     FM240100 12008KT P6SM BKN080=



000
FTUS45 KBOI 230520
TAFJER
TAF
KJER 230520Z 2306/2406 24018G25KT P6SM VCSH SCT080
     FM231200 23012KT P6SM SCT120
     FM231800 26020G30KT P6SM SCT100
     FM240300 25010KT P6SM BKN080=



000
FTUS45 KBOI 230520
TAFTWF
TAF
KTWF 230520Z 2306/2406 25020G28KT P6SM BKN090
     FM231800 26020G30KT P6SM SCT120
     FM240200 26012KT P6SM BKN100=



000
FTUS45 KBOI 230520
TAFBKE
TAF
KBKE 230520Z 2306/2406 VRB05KT P6SM SCT100
     FM231800 VRB06KT P6SM VCSH SCT050 OVC080
     FM240000 05008KT P6SM -SHRA OVC050=



000
FTUS45 KBOI 230520
TAFMYL
TAF
KMYL 230520Z 2306/2406 00000KT P6SM FEW120
     FM231500 17010KT 2SM -SN BR OVC015
     FM232100 19010KT 5SM -SHSN BR SCT015 OVC025
     FM240300 VRB03KT P6SM VCSH SCT030 BKN050=



000
FTUS45 KBOI 230520
TAFBNO
TAF
KBNO 230520Z 2306/2406 24006KT P6SM FEW080
     FM231800 23015G25KT P6SM BKN100
     FM240000 23015G25KT P6SM -SHRA BKN050=



000
FTUS45 KBOI 230520
TAFBOI
TAF
KBOI 230520Z 2306/2406 29006KT P6SM VCSH FEW080
     FM231600 32015KT P6SM BKN120
     FM240100 12008KT P6SM BKN080=



000
FTUS45 KBOI 230441 AAB
TAFMYL
TAF AMD
KMYL 230441Z 2305/2324 VRB04KT P6SM OVC100
     FM231300 VRB05KT 2SM -SN BR OVC015
     FM231800 18010KT 5SM -SHSN BR SCT015 OVC025=



000
FTUS45 KBOI 230439 AAB
TAFBKE
TAF AMD
KBKE 230439Z 2305/2324 34008KT P6SM SCT100
     FM230600 35010KT P6SM SCT100
     FM231800 VRB06KT P6SM VCSH SCT050 OVC100=



000
FTUS45 KBOI 230438 AAB
TAFJER
TAF AMD
KJER 230438Z 2305/2324 25012KT P6SM VCSH SCT040 BKN080
     FM231800 26015G25KT P6SM SCT100=



000
FTUS45 KBOI 230231 AAB
TAFBOI
TAF AMD
KBOI 230231Z 2303/2324 29012KT P6SM VCSH SCT035 BKN100
     FM231600 32015KT P6SM SCT100=



000
FTUS45 KBOI 230230 AAA
TAFBNO
TAF AMD
KBNO 230230Z 2303/2324 26015KT P6SM BKN100
     FM230800 23010KT P6SM SCT100
     FM231800 23015G25KT P6SM BKN100=



000
FTUS45 KBOI 230229 AAA
TAFJER
TAF AMD
KJER 230229Z 2302/2324 20012KT P6SM VCSH SCT040 BKN080
     FM231800 26015G25KT P6SM SCT100=



000
FTUS45 KBOI 230228 AAA
TAFTWF
TAF AMD
KTWF 230228Z 2302/2324 24020G35KT P6SM -RA BKN025 OVC040
     FM230300 22018G28KT P6SM SCT040 BKN080
     FM231800 26015G25KT P6SM SCT100=



000
FTUS45 KBOI 230227 AAA
TAFBKE
TAF AMD
KBKE 230227Z 2302/2324 31013KT P6SM SCT100
     FM230600 35010KT P6SM SCT100
     FM231800 VRB06KT P6SM VCSH SCT050 OVC100=



000
FTUS45 KBOI 230225 AAA
TAFMYL
TAF AMD
KMYL 230225Z 2302/2324 VRB03KT P6SM VCSH BKN040
      TEMPO 2302/2304 2SM -SHSN BR BKN025
     FM230400 VRB04KT P6SM VCSH OVC030
     FM231300 VRB05KT 2SM -SN BR OVC015
     FM231800 18010KT 5SM -SHSN BR SCT015 OVC025=



000
FTUS45 KBOI 222321
TAFBOI
TAF
KBOI 222321Z 2300/2324 35012KT P6SM VCSH SCT060 BKN100
     FM231600 32015KT P6SM SCT100=



000
FTUS45 KBOI 222321
TAFJER
TAF
KJER 222321Z 2300/2324 22015G25KT P6SM -RA BKN015 OVC035
     FM230300 23015G25KT P6SM SCT040 BKN080
     FM231800 26015G25KT P6SM SCT100=



000
FTUS45 KBOI 222321
TAFBKE
TAF
KBKE 222321Z 2300/2324 32020G30KT P6SM BKN080
     FM230300 32015G25KT P6SM BKN100
     FM230600 35010KT P6SM SCT100
     FM231800 VRB06KT P6SM VCSH SCT050 OVC100=



000
FTUS45 KBOI 222321
TAFMYL
TAF
KMYL 222321Z 2300/2324 VRB03KT 5SM -SN BR BKN015 OVC030
     FM230400 VRB04KT P6SM VCSH OVC030
     FM231300 VRB05KT 2SM -SN BR OVC015
     FM231800 18010KT 5SM -SHSN BR SCT015 OVC025=



000
FTUS45 KBOI 222321
TAFBNO
TAF
KBNO 222321Z 2300/2324 27015G25KT P6SM SCT070 BKN100
     FM230300 27012KT P6SM SCT100
     FM230800 23010KT P6SM SCT100
     FM231800 23015G25KT P6SM BKN100=



000
FTUS45 KBOI 222321
TAFTWF
TAF
KTWF 222321Z 2300/2324 22012KT P6SM -RA BKN025 OVC040
     FM230300 22018G28KT P6SM SCT040 BKN080
     FM231800 26015G25KT P6SM SCT100=



000
FTUS45 KBOI 222216 AAB
TAFMYL
TAF AMD
KMYL 222216Z 2222/2318 VRB03KT 3SM -SN BR BKN008 OVC015
     FM230200 33006KT P6SM VCSH SCT015 OVC030
     FM230400 VRB04KT P6SM VCSH OVC030
     FM231300 VRB05KT 2SM -SN BR OVC015=



000
FTUS45 KBOI 222215 AAA
TAFBNO
TAF AMD
KBNO 222215Z 2222/2318 25020G30KT P6SM SCT050 BKN080
     FM230300 27012KT P6SM SCT050 BKN100
     FM230600 24008KT P6SM SCT050 BKN100=



000
FTUS45 KBOI 222214 AAB
TAFTWF
TAF AMD
KTWF 222214Z 2222/2318 23015KT P6SM -SHRA BKN025 OVC040
     FM230300 23018G28KT P6SM BKN080=



000
FTUS45 KBOI 222214 AAA
TAFJER
TAF AMD
KJER 222214Z 2222/2318 24010KT P6SM -SHRA SCT015 OVC035
     FM230300 24015G25KT P6SM BKN080=



000
FTUS45 KBOI 221935 AAB
TAFBOI
TAF AMD
KBOI 221935Z 2220/2318 13007KT P6SM VCSH SCT050 OVC070
     FM222030 27010KT P6SM VCTS SCT020 BKN040CB
      TEMPO 2221/2222 27015G25KT 2SM TSRA SCT015 BKN025CB
     FM222300 33018G28KT P6SM -SHRA OVC050
     FM230200 33010KT P6SM SCT050 BKN080=



000
FTUS45 KBOI 221911 AAA
TAFTWF
TAF AMD
KTWF 221911Z 2219/2318 27030G40KT P6SM VCSH BKN040
     FM222100 27022G32KT P6SM -SHRA OVC040
     FM230300 23018G28KT P6SM BKN080=



000
FTUS45 KBOI 221831 AAA
TAFMYL
TAF AMD
KMYL 221831Z 2219/2318 VRB05KT 6SM -RASN BR OVC015
      TEMPO 2219/2221 2SM -SN BR BKN003 OVC008
     FM222100 30010KT 4SM -SHRA BKN015 OVC030
     FM230200 33006KT P6SM VCSH SCT015 OVC030
     FM230400 VRB04KT P6SM VCSH OVC030
     FM231300 VRB05KT 2SM -SN BR OVC015=



000
FTUS45 KBOI 221720
TAFJER
TAF
KJER 221720Z 2218/2318 27024G34KT P6SM -SHRA OVC050
     FM230300 24015G25KT P6SM BKN080=



000
FTUS45 KBOI 221720
TAFTWF
TAF
KTWF 221720Z 2218/2318 27022G32KT P6SM -SHRA OVC050
     FM230300 23018G28KT P6SM BKN080=



000
FTUS45 KBOI 221720
TAFBKE
TAF
KBKE 221720Z 2218/2318 33012G22KT P6SM -SHRA OVC040
     FM222200 32020G30KT P6SM SCT050 BKN080
     FM230300 33012KT P6SM BKN100
     FM230600 VRB05KT P6SM VCSH BKN050=



000
FTUS45 KBOI 221720
TAFBOI
TAF
KBOI 221720Z 2218/2318 33006KT P6SM -RA OVC050
     FM221900 13005KT P6SM VCSH SCT050 OVC070
     FM222300 33018G28KT P6SM -SHRA OVC050
     FM230200 33010KT P6SM SCT050 BKN080=



000
FTUS45 KBOI 221720
TAFMYL
TAF
KMYL 221720Z 2218/2318 VRB05KT 6SM -RASN BR OVC025
      TEMPO 2218/2220 3SM -SN BR OVC015
     FM222100 30010KT 4SM -SHRA BKN015 OVC030
     FM230200 33006KT P6SM VCSH SCT015 OVC030
     FM230400 VRB04KT P6SM VCSH OVC030
     FM231300 VRB05KT 2SM -SN BR OVC015=



000
FTUS45 KBOI 221720
TAFBNO
TAF
KBNO 221720Z 2218/2318 28020G28KT P6SM -SHRA OVC035
     FM222100 28022G30KT P6SM SCT050 BKN080
     FM230300 27012KT P6SM SCT050 BKN100
     FM230600 24008KT P6SM SCT050 BKN100=



000
FTUS45 KBOI 221558 AAC
TAFBKE
TAF AMD
KBKE 221558Z 2216/2312 33012G22KT P6SM -RA OVC040
     FM222200 32020G30KT P6SM SCT040 BKN080
     FM230400 33012KT P6SM SCT070 BKN080
     FM230600 10006KT P6SM BKN080=



000
FTUS45 KBOI 221553 AAB
TAFMYL
TAF AMD
KMYL 221553Z 2216/2312 32005KT 3SM -RASN BR OVC015
      TEMPO 2216/2218 1SM -SN BR OVC010
     FM222200 32012KT 4SM -RA OVC015
     FM230000 33006KT P6SM VCSH SCT015 OVC030
     FM230400 VRB05KT P6SM VCSH OVC030=



000
FTUS45 KBOI 221515 AAB
TAFBKE
TAF AMD
KBKE 221515Z 2215/2312 16010KT P6SM VCSH OVC050
     FM221700 33012G22KT P6SM -RA OVC040
     FM222200 32020G30KT P6SM SCT040 BKN080
     FM230400 33012KT P6SM SCT070 BKN080
     FM230600 10006KT P6SM BKN080=



000
FTUS45 KBOI 221513 AAA
TAFJER
TAF AMD
KJER 221513Z 2215/2312 25015G25KT P6SM OVC100
     FM221700 27024G34KT P6SM -SHRA OVC050
     FM222300 27026G36KT P6SM VCSH SCT050 OVC070
     FM230100 24015G25KT P6SM BKN080=



000
FTUS45 KBOI 221511 AAA
TAFTWF
TAF AMD
KTWF 221511Z 2215/2312 27015G25KT P6SM OVC100
     FM221700 28022G32KT P6SM -SHRA OVC050
     FM222300 28025G35KT P6SM VCSH SCT050 OVC070
     FM230100 26020G30KT P6SM BKN080=



000
FTUS45 KBOI 221401 AAA
TAFMYL
TAF AMD
KMYL 221401Z 2214/2312 32005KT 3SM SHRA BR OVC015
     FM221600 30008KT 4SM -RA OVC015
     FM222200 32012KT 4SM -RA OVC015
     FM230000 33006KT P6SM VCSH SCT015 OVC030
     FM230400 VRB05KT P6SM VCSH OVC030=



000
FTUS45 KBOI 221247 AAA
TAFBKE
TAF AMD
KBKE 221247Z 2213/2312 16010KT P6SM VCSH OVC050
     FM221400 33012G22KT P6SM -RA OVC040
     FM222200 32020G30KT P6SM SCT040 BKN080
     FM230400 33012KT P6SM SCT070 BKN080
     FM230600 10006KT P6SM BKN080=



000
FTUS45 KBOI 221123
TAFBOI
TAF
KBOI 221123Z 2212/2312 30010KT P6SM -SHRA OVC050
      TEMPO 2212/2214 32015G25KT P6SM OVC050
     FM221900 13010KT P6SM VCSH SCT050 OVC070
     FM222300 33018G28KT P6SM -RA OVC050
     FM230200 33010KT P6SM SCT050 BKN080=



000
FTUS45 KBOI 221123
TAFMYL
TAF
KMYL 221123Z 2212/2312 VRB03KT P6SM OVC050
      TEMPO 2212/2214 32010G20KT P6SM -SHRA OVC040
     FM221400 32008KT P6SM -SHRA OVC030
     FM221600 30008KT 4SM -RA OVC015
     FM222200 32012KT 4SM -RA OVC015
     FM230000 33006KT P6SM VCSH SCT015 OVC030
     FM230400 VRB05KT P6SM VCSH OVC030=



000
FTUS45 KBOI 221123
TAFBKE
TAF
KBKE 221123Z 2212/2312 13010KT P6SM VCSH OVC050
     FM221400 33012G22KT P6SM -RA OVC040
     FM222200 32020G30KT P6SM SCT040 BKN080
     FM230400 33012KT P6SM SCT070 BKN080
     FM230600 10006KT P6SM BKN080=



000
FTUS45 KBOI 221123
TAFTWF
TAF
KTWF 221123Z 2212/2312 17010KT P6SM OVC100
     FM221500 13008KT P6SM VCSH OVC050
     FM221700 28022G32KT P6SM -SHRA OVC050
     FM222300 28025G35KT P6SM VCSH SCT050 OVC070
     FM230100 26020G30KT P6SM BKN080=



000
FTUS45 KBOI 221123
TAFBNO
TAF
KBNO 221123Z 2212/2312 24010KT P6SM -SHRA OVC050
     FM221500 27015G25KT P6SM -SHRA OVC035
     FM222100 28015G25KT P6SM BKN050 OVC080
     FM230300 26012KT P6SM SCT050 BKN100
     FM230600 25008KT P6SM BKN080=



000
FTUS45 KBOI 221123
TAFJER
TAF
KJER 221123Z 2212/2312 07008KT P6SM OVC100
     FM221500 07014KT P6SM VCSH OVC050
     FM221700 27024G34KT P6SM -SHRA OVC050
     FM222300 27026G36KT P6SM VCSH SCT050 OVC070
     FM230100 24015G25KT P6SM BKN080=



000
FTUS45 KBOI 220801 AAA
TAFBNO
TAF AMD
KBNO 220801Z 2208/2306 21015G25KT P6SM VCSH BKN040 OVC080
     FM221000 24015G25KT P6SM -SHRA OVC040
     FM221500 27015G25KT P6SM -SHRA OVC035
     FM222100 28015G25KT P6SM BKN050 OVC100
     FM230300 26011KT P6SM SCT050 BKN100=



000
FTUS45 KBOI 220520
TAFMYL
TAF
KMYL 220520Z 2206/2306 VRB03KT P6SM OVC090
     FM221400 VRB03KT P6SM -SHRA OVC030
     FM221800 18008KT 4SM -RA OVC015
     FM222200 30009KT 4SM -RA OVC015
     FM230000 33006KT P6SM VCSH SCT015 OVC035=



000
FTUS45 KBOI 220520
TAFTWF
TAF
KTWF 220520Z 2206/2306 17010KT P6SM OVC100
     FM221500 13008KT P6SM VCSH OVC050
     FM221700 29022G32KT P6SM -SHRA OVC050
     FM222200 29025G35KT P6SM VCSH SCT050 OVC070=



000
FTUS45 KBOI 220520
TAFBKE
TAF
KBKE 220520Z 2206/2306 VRB05KT P6SM VCSH BKN050 OVC080
     FM221400 31010KT P6SM VCSH OVC040
     FM221900 29012G22KT P6SM -SHRA OVC025
     FM222300 32020G30KT P6SM SCT040 BKN100
     FM230400 33012KT P6SM SCT070 BKN120=



000
FTUS45 KBOI 220520
TAFBOI
TAF
KBOI 220520Z 2206/2306 13010KT P6SM SCT100 OVC150
     FM221400 30012KT P6SM -SHRA OVC050
     FM221900 13010KT P6SM VCSH SCT050 OVC070
     FM222300 33020G30KT P6SM -SHRA OVC050
     FM230200 33010KT P6SM SCT050 BKN100=



000
FTUS45 KBOI 220520
TAFBNO
TAF
KBNO 220520Z 2206/2306 20008KT P6SM VCSH BKN040 OVC080
     FM221000 24010KT P6SM -SHRA OVC040
     FM221500 27015G25KT P6SM -SHRA OVC035
     FM222100 28015G25KT P6SM BKN050 OVC100
     FM230300 26011KT P6SM SCT050 BKN100=



000
FTUS45 KBOI 220520
TAFJER
TAF
KJER 220520Z 2206/2306 07008KT P6SM OVC100
     FM221500 07014KT P6SM VCSH OVC050
     FM221700 27024G34KT P6SM -SHRA OVC050
     FM222200 26026G36KT P6SM VCSH SCT050 OVC070=



000
FTUS45 KBOI 212329
TAFBOI
TAF
KBOI 212329Z 2200/2224 14014G20KT P6SM BKN200
     FM220100 13010KT P6SM SCT100 OVC150
     FM221400 30012KT P6SM -SHRA OVC050
     FM221900 13010KT P6SM VCSH SCT050 OVC070
     FM222300 33020G30KT P6SM -SHRA OVC050=



000
FTUS45 KBOI 212329
TAFBKE
TAF
KBKE 212329Z 2200/2224 10014KT P6SM OVC100
     FM220300 VRB05KT P6SM BKN050 OVC080
     FM221400 31010KT P6SM VCSH OVC040
     FM221900 29012G22KT P6SM -SHRA OVC025
     FM222300 30020G30KT P6SM SCT040 BKN100=



000
FTUS45 KBOI 212329
TAFBNO
TAF
KBNO 212329Z 2200/2224 13010KT P6SM OVC100
     FM220100 VRB05KT P6SM BKN050 OVC080
     FM221300 24010KT P6SM VCSH OVC040
     FM221500 27015G25KT P6SM -SHRA OVC035
     FM222100 28015G25KT P6SM BKN050 OVC100=



000
FTUS45 KBOI 212329
TAFTWF
TAF
KTWF 212329Z 2200/2224 07010KT P6SM OVC200
     FM220200 17010KT P6SM OVC100
     FM221500 13008KT P6SM VCSH OVC050
     FM221700 29022G32KT P6SM -SHRA OVC050
     FM222200 29012KT P6SM SCT050 OVC070=



000
FTUS45 KBOI 212329
TAFMYL
TAF
KMYL 212329Z 2200/2224 18008KT P6SM SCT100 OVC150
     FM220200 VRB03KT P6SM OVC090
     FM221400 VRB03KT P6SM -SHRA OVC030
     FM221800 18008KT 4SM -RA OVC015=



000
FTUS45 KBOI 212329
TAFJER
TAF
KJER 212329Z 2200/2224 08010KT P6SM SCT200
     FM220200 07008KT P6SM OVC100
     FM221500 07014KT P6SM VCSH OVC050
     FM221700 27024G34KT P6SM -SHRA OVC050
     FM222200 26012KT P6SM SCT050 OVC070=



000
FTUS45 KBOI 211737
TAFBNO
TAF
KBNO 211737Z 2118/2218 15010KT P6SM OVC100
     FM220100 VRB05KT P6SM BKN050 OVC080
     FM221400 24010KT P6SM VCSH OVC040=



000
FTUS45 KBOI 211737
TAFMYL
TAF
KMYL 211737Z 2118/2218 18008KT P6SM SCT100 OVC150
     FM220200 VRB03KT P6SM OVC090
     FM221400 VRB03KT P6SM -SHRA OVC030=



000
FTUS45 KBOI 211737
TAFJER
TAF
KJER 211737Z 2118/2218 08010KT P6SM SCT200
     FM220200 07008KT P6SM OVC100
     FM221500 07014KT P6SM VCSH OVC050=



000
FTUS45 KBOI 211737
TAFBKE
TAF
KBKE 211737Z 2118/2218 11014KT P6SM OVC100
     FM220300 VRB05KT P6SM BKN050 OVC080
     FM221400 31010KT P6SM VCSH OVC040=



000
FTUS45 KBOI 211737
TAFBOI
TAF
KBOI 211737Z 2118/2218 14014G20KT P6SM BKN200
     FM220100 13010KT P6SM SCT100 OVC150
     FM221400 30010KT P6SM -SHRA OVC050=



000
FTUS45 KBOI 211737
TAFTWF
TAF
KTWF 211737Z 2118/2218 07010KT P6SM SCT200
     FM220200 17010KT P6SM OVC100
     FM221500 13008KT P6SM VCSH OVC050=



    US Dept of Commerce
    National Oceanic and Atmospheric Administration
    National Weather Service
    1325 East West Highway
    Silver Spring, MD 20910
    Page Author: NWS Internet Services Team
Disclaimer
Information Quality
Credits
Glossary
Privacy Policy
Freedom of Information Act (FOIA)
About Us
Career Opportunities